createdAt,value
2018-12-14T00:00:32.672Z,4.30
2018-12-14T00:05:16.244Z,4.30
2018-12-14T00:09:59.695Z,4.30
2018-12-14T00:14:41.240Z,4.30
2018-12-14T00:19:22.767Z,4.30
2018-12-14T00:24:04.352Z,4.20
2018-12-14T00:28:46.013Z,4.20
2018-12-14T00:33:27.584Z,4.20
2018-12-14T00:38:09.292Z,4.20
2018-12-14T00:42:50.940Z,4.10
2018-12-14T00:47:32.580Z,4.10
2018-12-14T00:52:13.080Z,4.10
2018-12-14T00:56:54.285Z,4.10
2018-12-14T01:01:35.857Z,4.00
2018-12-14T01:06:17.797Z,4.00
2018-12-14T01:10:59.619Z,4.00
2018-12-14T01:15:41.214Z,4.00
2018-12-14T01:20:22.637Z,4.00
2018-12-14T01:25:04.635Z,4.00
2018-12-14T01:29:46.200Z,4.00
2018-12-14T01:34:27.703Z,4.00
2018-12-14T01:39:09.858Z,4.00
2018-12-14T01:43:51.484Z,4.10
2018-12-14T01:48:33.158Z,4.10
2018-12-14T01:53:14.846Z,4.10
2018-12-14T01:57:56.589Z,4.10
2018-12-14T02:02:38.161Z,4.10
2018-12-14T02:07:19.668Z,4.10
2018-12-14T02:12:01.383Z,4.20
2018-12-14T02:16:42.923Z,4.20
2018-12-14T02:21:24.457Z,4.20
2018-12-14T02:26:06.154Z,4.20
2018-12-14T02:30:47.964Z,4.20
2018-12-14T02:35:29.526Z,4.20
2018-12-14T02:40:11.190Z,4.10
2018-12-14T02:44:52.810Z,4.10
2018-12-14T02:49:34.534Z,4.10
2018-12-14T02:54:17.312Z,4.10
2018-12-14T02:58:58.864Z,4.10
2018-12-14T03:03:40.377Z,4.10
2018-12-14T03:08:21.906Z,4.10
2018-12-14T03:13:03.619Z,4.10
2018-12-14T03:17:45.081Z,4.10
2018-12-14T03:22:26.852Z,4.10
2018-12-14T03:27:08.468Z,4.00
2018-12-14T03:31:50.274Z,4.00
2018-12-14T03:36:31.799Z,3.90
2018-12-14T03:41:13.508Z,3.90
2018-12-14T03:45:55.136Z,3.80
2018-12-14T03:50:36.654Z,3.80
2018-12-14T03:55:18.278Z,3.80
2018-12-14T03:59:59.774Z,3.80
2018-12-14T04:04:41.427Z,3.70
2018-12-14T04:09:23.084Z,3.70
2018-12-14T04:14:04.602Z,3.70
2018-12-14T04:18:46.652Z,3.70
2018-12-14T04:23:28.161Z,3.70
2018-12-14T04:28:09.728Z,3.70
2018-12-14T04:32:51.299Z,3.70
2018-12-14T04:37:33.174Z,3.70
2018-12-14T04:42:14.801Z,3.70
2018-12-14T04:46:57.028Z,3.70
2018-12-14T04:51:38.567Z,3.70
2018-12-14T04:56:20.496Z,3.60
2018-12-14T05:01:02.143Z,3.60
2018-12-14T05:05:43.730Z,3.60
2018-12-14T05:10:25.298Z,3.60
2018-12-14T05:15:08.095Z,3.70
2018-12-14T05:19:49.619Z,3.60
2018-12-14T05:24:31.287Z,3.60
2018-12-14T05:29:12.969Z,3.60
2018-12-14T05:33:55.550Z,3.60
2018-12-14T05:38:37.266Z,3.50
2018-12-14T05:43:18.888Z,3.50
2018-12-14T05:48:00.482Z,3.50
2018-12-14T05:52:41.984Z,3.50
2018-12-14T05:57:23.692Z,3.50
2018-12-14T06:02:06.386Z,3.60
2018-12-14T06:06:48.095Z,3.60
2018-12-14T06:11:29.778Z,3.50
2018-12-14T06:16:11.382Z,3.50
2018-12-14T06:20:52.961Z,3.50
2018-12-14T06:25:34.465Z,3.50
2018-12-14T06:30:16.110Z,3.40
2018-12-14T06:34:57.798Z,3.40
2018-12-14T06:39:39.337Z,3.50
2018-12-14T06:44:20.994Z,3.50
2018-12-14T06:49:02.603Z,3.50
2018-12-14T06:53:44.290Z,3.50
2018-12-14T06:58:25.942Z,3.50
2018-12-14T07:03:07.574Z,3.50
2018-12-14T07:07:49.219Z,3.50
2018-12-14T07:12:30.761Z,3.40
2018-12-14T07:17:12.341Z,3.40
2018-12-14T07:21:53.921Z,3.40
2018-12-14T07:26:35.890Z,3.40
2018-12-14T07:31:17.587Z,3.40
2018-12-14T07:35:59.196Z,3.40
2018-12-14T07:40:40.858Z,3.40
2018-12-14T07:45:22.380Z,3.30
2018-12-14T07:50:04.284Z,3.30
2018-12-14T07:54:45.792Z,3.40
2018-12-14T07:59:27.352Z,3.30
2018-12-14T08:04:08.876Z,3.30
2018-12-14T08:08:50.256Z,3.30
2018-12-14T08:13:34.807Z,3.40
2018-12-14T08:18:15.296Z,3.40
2018-12-14T08:22:56.951Z,3.40
2018-12-14T08:27:38.715Z,3.30
2018-12-14T08:32:20.217Z,3.30
2018-12-14T08:37:01.896Z,3.30
2018-12-14T08:41:43.673Z,3.40
2018-12-14T08:46:25.291Z,3.40
2018-12-14T08:51:06.752Z,3.40
2018-12-14T08:55:48.477Z,3.40
2018-12-14T09:00:29.882Z,3.40
2018-12-14T09:05:11.396Z,3.40
2018-12-14T09:09:52.993Z,3.40
2018-12-14T09:14:34.488Z,3.40
2018-12-14T09:19:16.169Z,3.40
2018-12-14T09:23:57.777Z,3.40
2018-12-14T09:28:39.736Z,3.40
2018-12-14T09:33:21.308Z,3.50
2018-12-14T09:38:02.916Z,3.50
2018-12-14T09:42:44.440Z,3.50
2018-12-14T09:47:25.900Z,3.60
2018-12-14T09:52:07.518Z,3.60
2018-12-14T09:56:49.020Z,3.70
2018-12-14T10:01:30.658Z,3.70
2018-12-14T10:06:15.683Z,3.70
2018-12-14T10:10:56.195Z,3.70
2018-12-14T10:15:37.849Z,3.70
2018-12-14T10:20:19.418Z,3.70
2018-12-14T10:25:07.736Z,3.80
2018-12-14T10:29:49.382Z,3.80
2018-12-14T10:34:31.172Z,3.80
2018-12-14T10:39:12.799Z,3.80
2018-12-14T10:43:54.304Z,3.80
2018-12-14T10:48:35.880Z,3.80
2018-12-14T10:53:17.558Z,3.80
2018-12-14T10:57:59.596Z,3.80
2018-12-14T11:02:41.102Z,3.80
2018-12-14T11:07:22.675Z,3.80
2018-12-14T11:12:04.294Z,3.90
2018-12-14T11:16:45.792Z,3.90
2018-12-14T11:21:27.434Z,3.90
2018-12-14T11:26:09.078Z,3.90
2018-12-14T11:30:50.647Z,3.80
2018-12-14T11:35:32.204Z,3.90
2018-12-14T11:40:13.677Z,3.90
2018-12-14T11:44:55.318Z,3.90
2018-12-14T11:49:37.029Z,3.90
2018-12-14T11:54:18.641Z,3.90
2018-12-14T11:59:00.283Z,3.90
2018-12-14T12:03:42.890Z,3.90
2018-12-14T12:08:24.712Z,4.00
2018-12-14T12:13:06.349Z,4.00
2018-12-14T12:17:49.770Z,4.00
2018-12-14T12:22:31.391Z,4.00
2018-12-14T12:27:12.858Z,4.00
2018-12-14T12:31:54.380Z,4.00
2018-12-14T12:36:35.875Z,4.00
2018-12-14T12:41:17.574Z,4.00
2018-12-14T12:45:59.199Z,3.90
2018-12-14T12:50:41.253Z,3.90
2018-12-14T12:55:22.856Z,3.80
2018-12-14T13:00:04.874Z,3.70
2018-12-14T13:04:47.964Z,3.70
2018-12-14T13:09:29.484Z,3.70
2018-12-14T13:14:11.003Z,3.60
2018-12-14T13:18:52.544Z,3.60
2018-12-14T13:23:34.135Z,3.60
2018-12-14T13:28:16.022Z,3.60
2018-12-14T13:32:58.196Z,3.60
2018-12-14T13:37:40.263Z,3.60
2018-12-14T13:42:22.387Z,3.60
2018-12-14T13:47:03.981Z,3.60
2018-12-14T13:51:45.782Z,3.60
2018-12-14T13:56:27.500Z,3.60
2018-12-14T14:01:09.435Z,3.60
2018-12-14T14:05:51.437Z,3.60
2018-12-14T14:10:33.166Z,3.60
2018-12-14T14:20:14.199Z,3.60
2018-12-14T14:24:55.820Z,3.60
2018-12-14T14:29:37.457Z,3.60
2018-12-14T14:34:19.214Z,3.60
2018-12-14T14:39:00.769Z,3.60
2018-12-14T14:43:43.446Z,3.50
2018-12-14T14:48:25.078Z,3.50
2018-12-14T14:53:06.738Z,3.50
2018-12-14T14:57:48.802Z,3.50
2018-12-14T15:02:30.414Z,3.60
2018-12-14T15:07:12.040Z,3.50
2018-12-14T15:11:53.780Z,3.50
2018-12-14T15:16:35.556Z,3.50
2018-12-14T15:21:17.617Z,3.50
2018-12-14T15:25:59.186Z,3.50
2018-12-14T15:30:40.864Z,3.40
2018-12-14T15:35:22.528Z,3.40
2018-12-14T15:40:04.823Z,3.40
2018-12-14T15:44:46.844Z,3.40
2018-12-14T15:49:28.323Z,3.30
2018-12-14T15:54:09.929Z,3.30
2018-12-14T15:58:51.534Z,3.20
2018-12-14T16:03:34.780Z,3.20
2018-12-14T16:08:16.335Z,3.20
2018-12-14T16:12:57.888Z,3.20
2018-12-14T16:17:39.721Z,3.10
2018-12-14T16:22:21.520Z,3.10
2018-12-14T16:27:03.256Z,3.00
2018-12-14T16:31:44.868Z,3.00
2018-12-14T16:36:26.872Z,3.00
2018-12-14T16:41:08.376Z,3.00
2018-12-14T16:45:50.059Z,3.00
2018-12-14T16:50:31.624Z,3.00
2018-12-14T16:55:13.313Z,3.10
2018-12-14T16:59:54.882Z,3.10
2018-12-14T17:04:36.494Z,3.10
2018-12-14T17:09:18.055Z,3.10
2018-12-14T17:13:59.763Z,3.10
2018-12-14T17:18:41.250Z,3.10
2018-12-14T17:23:22.929Z,3.10
2018-12-14T17:28:04.781Z,3.10
2018-12-14T17:32:47.618Z,3.10
2018-12-14T17:37:29.192Z,3.00
2018-12-14T17:42:12.849Z,3.00
2018-12-14T17:46:54.764Z,3.00
2018-12-14T17:51:36.308Z,3.00
2018-12-14T17:56:17.977Z,3.00
2018-12-14T18:00:59.757Z,3.00
2018-12-14T18:05:41.334Z,3.00
2018-12-14T18:10:22.958Z,3.00
2018-12-14T18:15:05.231Z,3.00
2018-12-14T18:19:47.698Z,3.00
2018-12-14T18:24:29.308Z,3.10
2018-12-14T18:29:11.850Z,3.10
2018-12-14T18:33:53.289Z,3.10
2018-12-14T18:38:34.865Z,3.00
2018-12-14T18:43:17.272Z,3.00
2018-12-14T18:47:59.284Z,3.10
2018-12-14T18:52:41.189Z,3.00
2018-12-14T18:57:23.500Z,3.00
2018-12-14T19:02:05.238Z,2.90
2018-12-14T19:06:48.288Z,3.00
2018-12-14T19:11:29.780Z,3.00
2018-12-14T19:16:11.273Z,3.00
2018-12-14T19:20:52.857Z,3.00
2018-12-14T19:25:34.654Z,3.00
2018-12-14T19:30:16.240Z,3.10
2018-12-14T19:34:57.836Z,3.10
2018-12-14T19:39:39.416Z,3.10
2018-12-14T19:44:21.006Z,3.10
2018-12-14T19:49:02.430Z,3.10
2018-12-14T19:53:43.990Z,3.10
2018-12-14T19:58:26.861Z,3.10
2018-12-14T20:03:08.597Z,3.10
2018-12-14T20:07:50.267Z,3.10
2018-12-14T20:12:31.860Z,3.10
2018-12-14T20:17:13.523Z,3.20
2018-12-14T20:21:55.178Z,3.20
2018-12-14T20:26:36.937Z,3.20
2018-12-14T20:31:18.665Z,3.20
2018-12-14T20:36:00.951Z,3.10
2018-12-14T20:40:42.593Z,3.10
2018-12-14T20:45:24.616Z,3.10
2018-12-14T20:50:08.119Z,3.10
2018-12-14T20:54:49.685Z,3.10
2018-12-14T20:59:31.303Z,3.10
2018-12-14T21:04:13.008Z,3.10
2018-12-14T21:08:54.880Z,3.10
2018-12-14T21:13:38.179Z,3.20
2018-12-14T21:18:19.707Z,3.10
2018-12-14T21:27:59.429Z,3.20
2018-12-14T21:32:41.012Z,3.20
2018-12-14T21:37:22.847Z,3.20
2018-12-14T21:42:04.564Z,3.20
2018-12-14T21:46:46.197Z,3.20
2018-12-14T21:51:27.896Z,3.10
2018-12-14T21:56:12.440Z,3.10
2018-12-14T22:00:54.082Z,3.10
2018-12-14T22:05:35.868Z,3.10
2018-12-14T22:10:17.448Z,3.10
2018-12-14T22:14:59.132Z,3.10
2018-12-14T22:19:40.659Z,3.10
2018-12-14T22:24:22.224Z,3.10
2018-12-14T22:29:03.714Z,3.10
2018-12-14T22:33:45.227Z,3.10
2018-12-14T22:38:26.788Z,3.10
2018-12-14T22:43:08.334Z,3.10
2018-12-14T22:47:49.877Z,3.10
2018-12-14T22:52:31.383Z,3.10
2018-12-14T22:57:12.963Z,3.10
2018-12-14T23:01:54.533Z,3.10
2018-12-14T23:06:36.116Z,3.10
2018-12-14T23:11:17.958Z,3.10
2018-12-14T23:15:59.527Z,3.10
2018-12-14T23:20:41.144Z,3.00
2018-12-14T23:25:22.808Z,3.00
2018-12-14T23:30:05.806Z,3.00
2018-12-14T23:35:51.910Z,3.00
2018-12-14T23:40:33.429Z,3.00
2018-12-14T23:45:14.954Z,3.00
2018-12-14T23:49:56.581Z,2.90
2018-12-14T23:54:38.222Z,3.00
2018-12-14T23:59:19.718Z,3.00
